AGGH

Details ICAO AGGH (HIR)
Name HONIARA INTL
Region Solomon Islands
Timezone Pacific/Guadalcanal (UTC+11.0)
Plans Departing 53
Arriving 60
Stats Elevation 28 ft / 9 m (AMSL)
Location -9.428258° 160.054534°
Runways 1
Magnetic Variation 8.675° E
Sunrise 2017-12-15 18:56:30 UTC / 2017-12-16 05:56:30 Local
Sunset 2017-12-16 07:36:41 UTC / 2017-12-16 18:36:41 Local
Advertisement - Login to hide

Runways

ID Width Length Bearing (true) Bearing (mag) Surface Threshold Offset Overrun Length
06 148 ft / 45 m 7,232 ft / 2,204 m 67.90° 59.23° Asphalt 0 ft / 0 m 184 ft / 56 m
24 148 ft / 45 m 7,232 ft / 2,204 m 247.90° 239.23° Asphalt 0 ft / 0 m 171 ft / 52 m

Map

Weather


0- 5 10 15 20 25 30 35+ Temperature / ° C

Clouds and Precipitation
Forecast for 2017-12-16 00:00 UTC. Updated 23 minutes ago

Ground ~20,000 ft ~40,000 ft Winds

METAR

AGGH 152300Z 34007KT 9999 HZ FEW019 FEW020CB SCT100 29/25 Q1009

TAF

TAF AGGH 151710Z 1518/1618 VRB03KT 9999 -SHRA FEW017 BKN100 FM152200 36010KT 9999 FEW018 BKN100 PROB30 INTER 1518/1600 3000 TSSH SCT015 FEW016CB BKN026 T 24 26 28 30 Q 1005 1007 1007 1005

Frequencies

Tower 118.10 MHz INFO
Warning: Do not use this data for real-world aviation or navigation. No guarantee of current accuracy is given.